sensor_id;sensor_type;location;lat;lon;timestamp;pressure;altitude;pressure_sealevel;temperature;humidity
73594;BME280;64760;53.404;23.498;2023-09-30T00:02:03;99741.16;;;17.19;69.16
73594;BME280;64760;53.404;23.498;2023-09-30T00:04:29;99737.59;;;17.30;69.03
73594;BME280;64760;53.404;23.498;2023-09-30T00:06:56;99736.66;;;17.24;68.78
73594;BME280;64760;53.404;23.498;2023-09-30T00:09:22;99731.25;;;17.13;69.51
73594;BME280;64760;53.404;23.498;2023-09-30T00:11:48;99734.56;;;17.15;69.66
73594;BME280;64760;53.404;23.498;2023-09-30T00:14:15;99725.00;;;17.24;69.35
73594;BME280;64760;53.404;23.498;2023-09-30T00:16:43;99725.72;;;17.19;69.27
73594;BME280;64760;53.404;23.498;2023-09-30T00:19:10;99723.56;;;17.33;68.16
73594;BME280;64760;53.404;23.498;2023-09-30T00:21:36;99714.63;;;17.21;69.16
73594;BME280;64760;53.404;23.498;2023-09-30T00:24:03;99723.97;;;17.13;69.80
73594;BME280;64760;53.404;23.498;2023-09-30T00:26:29;99715.84;;;17.13;69.46
73594;BME280;64760;53.404;23.498;2023-09-30T00:28:55;99712.31;;;17.13;69.95
73594;BME280;64760;53.404;23.498;2023-09-30T00:31:22;99711.13;;;17.09;70.02
73594;BME280;64760;53.404;23.498;2023-09-30T00:33:48;99715.84;;;17.13;69.81
73594;BME280;64760;53.404;23.498;2023-09-30T00:36:14;99716.22;;;17.05;70.59
73594;BME280;64760;53.404;23.498;2023-09-30T00:38:40;99705.84;;;17.02;70.94
73594;BME280;64760;53.404;23.498;2023-09-30T00:41:07;99706.69;;;17.03;71.18
73594;BME280;64760;53.404;23.498;2023-09-30T00:43:34;99708.44;;;17.09;70.82
73594;BME280;64760;53.404;23.498;2023-09-30T00:46:17;99706.06;;;17.12;70.71
73594;BME280;64760;53.404;23.498;2023-09-30T00:48:50;99709.72;;;17.18;70.81
73594;BME280;64760;53.404;23.498;2023-09-30T00:51:16;99707.34;;;17.21;70.30
73594;BME280;64760;53.404;23.498;2023-09-30T00:53:43;99702.50;;;17.23;70.08
73594;BME280;64760;53.404;23.498;2023-09-30T00:56:10;99703.56;;;17.22;70.79
73594;BME280;64760;53.404;23.498;2023-09-30T00:58:38;99699.88;;;17.28;69.95
73594;BME280;64760;53.404;23.498;2023-09-30T01:01:06;99704.84;;;17.31;70.09
73594;BME280;64760;53.404;23.498;2023-09-30T01:03:32;99701.53;;;17.29;70.32
73594;BME280;64760;53.404;23.498;2023-09-30T01:06:00;99710.84;;;17.33;70.18
73594;BME280;64760;53.404;23.498;2023-09-30T01:08:27;99703.19;;;17.30;70.27
73594;BME280;64760;53.404;23.498;2023-09-30T01:10:54;99697.28;;;17.33;69.87
73594;BME280;64760;53.404;23.498;2023-09-30T01:13:21;99697.28;;;17.33;69.79
73594;BME280;64760;53.404;23.498;2023-09-30T01:15:47;99695.63;;;17.32;69.95
73594;BME280;64760;53.404;23.498;2023-09-30T01:18:13;99694.69;;;17.38;69.52
73594;BME280;64760;53.404;23.498;2023-09-30T01:20:39;99684.06;;;17.37;69.86
73594;BME280;64760;53.404;23.498;2023-09-30T01:23:06;99691.31;;;17.31;70.25
73594;BME280;64760;53.404;23.498;2023-09-30T01:25:34;99682.19;;;17.37;69.95
73594;BME280;64760;53.404;23.498;2023-09-30T01:28:01;99685.97;;;17.36;70.01
73594;BME280;64760;53.404;23.498;2023-09-30T01:30:32;99683.00;;;17.38;70.29
73594;BME280;64760;53.404;23.498;2023-09-30T01:32:59;99688.63;;;17.48;69.86
73594;BME280;64760;53.404;23.498;2023-09-30T01:35:26;99691.03;;;17.33;70.68
73594;BME280;64760;53.404;23.498;2023-09-30T01:37:53;99684.34;;;17.35;70.07
73594;BME280;64760;53.404;23.498;2023-09-30T01:40:19;99678.09;;;17.35;70.49
73594;BME280;64760;53.404;23.498;2023-09-30T01:42:45;99676.19;;;17.35;70.31
73594;BME280;64760;53.404;23.498;2023-09-30T01:45:12;99674.28;;;17.36;69.92
73594;BME280;64760;53.404;23.498;2023-09-30T01:47:38;99677.25;;;17.34;70.53
73594;BME280;64760;53.404;23.498;2023-09-30T01:50:04;99665.38;;;17.35;70.80
73594;BME280;64760;53.404;23.498;2023-09-30T01:52:31;99671.84;;;17.34;70.84
73594;BME280;64760;53.404;23.498;2023-09-30T01:54:57;99672.41;;;17.36;70.91
73594;BME280;64760;53.404;23.498;2023-09-30T01:57:24;99664.47;;;17.47;70.00
73594;BME280;64760;53.404;23.498;2023-09-30T01:59:50;99668.25;;;17.46;70.00
73594;BME280;64760;53.404;23.498;2023-09-30T02:02:17;99667.75;;;17.49;70.26
73594;BME280;64760;53.404;23.498;2023-09-30T02:04:43;99663.66;;;17.46;69.92
73594;BME280;64760;53.404;23.498;2023-09-30T02:07:10;99663.63;;;17.58;69.76
73594;BME280;64760;53.404;23.498;2023-09-30T02:09:36;99667.84;;;17.54;70.06
73594;BME280;64760;53.404;23.498;2023-09-30T02:12:02;99664.31;;;17.53;69.62
73594;BME280;64760;53.404;23.498;2023-09-30T02:14:28;99663.50;;;17.53;69.34
73594;BME280;64760;53.404;23.498;2023-09-30T02:16:55;99670.56;;;17.54;69.21
73594;BME280;64760;53.404;23.498;2023-09-30T02:19:21;99664.53;;;17.35;70.96
73594;BME280;64760;53.404;23.498;2023-09-30T02:21:47;99661.44;;;17.43;70.83
73594;BME280;64760;53.404;23.498;2023-09-30T02:24:14;99660.84;;;17.41;70.80
73594;BME280;64760;53.404;23.498;2023-09-30T02:26:41;99651.22;;;17.33;70.65
73594;BME280;64760;53.404;23.498;2023-09-30T02:29:07;99648.72;;;17.44;70.11
73594;BME280;64760;53.404;23.498;2023-09-30T02:31:34;99647.47;;;17.34;71.14
73594;BME280;64760;53.404;23.498;2023-09-30T02:34:00;99648.63;;;17.38;71.29
73594;BME280;64760;53.404;23.498;2023-09-30T02:36:28;99641.38;;;17.44;70.68
73594;BME280;64760;53.404;23.498;2023-09-30T02:38:54;99642.88;;;17.52;70.61
73594;BME280;64760;53.404;23.498;2023-09-30T02:41:20;99630.41;;;17.51;70.46
73594;BME280;64760;53.404;23.498;2023-09-30T02:43:48;99631.66;;;17.60;69.87
73594;BME280;64760;53.404;23.498;2023-09-30T02:46:14;99619.63;;;17.56;70.40
73594;BME280;64760;53.404;23.498;2023-09-30T02:48:41;99627.91;;;17.61;70.01
73594;BME280;64760;53.404;23.498;2023-09-30T02:51:10;99626.44;;;17.70;69.86
73594;BME280;64760;53.404;23.498;2023-09-30T02:53:37;99624.72;;;17.80;69.06
73594;BME280;64760;53.404;23.498;2023-09-30T02:56:04;99625.44;;;17.76;69.89
73594;BME280;64760;53.404;23.498;2023-09-30T02:58:31;99629.91;;;17.82;69.48
73594;BME280;64760;53.404;23.498;2023-09-30T03:00:58;99637.75;;;17.83;69.60
73594;BME280;64760;53.404;23.498;2023-09-30T03:03:25;99623.66;;;17.81;69.81
73594;BME280;64760;53.404;23.498;2023-09-30T03:05:52;99626.69;;;18.02;68.92
73594;BME280;64760;53.404;23.498;2023-09-30T03:08:20;99626.78;;;18.07;68.54
73594;BME280;64760;53.404;23.498;2023-09-30T03:10:48;99623.16;;;18.01;68.81
73594;BME280;64760;53.404;23.498;2023-09-30T03:13:14;99626.50;;;18.08;68.27
73594;BME280;64760;53.404;23.498;2023-09-30T03:15:40;99625.59;;;18.19;67.90
73594;BME280;64760;53.404;23.498;2023-09-30T03:18:07;99615.94;;;18.07;69.22
73594;BME280;64760;53.404;23.498;2023-09-30T03:20:33;99628.06;;;18.04;68.89
73594;BME280;64760;53.404;23.498;2023-09-30T03:22:59;99623.38;;;18.00;69.54
73594;BME280;64760;53.404;23.498;2023-09-30T03:25:26;99623.31;;;17.95;69.87
73594;BME280;64760;53.404;23.498;2023-09-30T03:27:52;99622.50;;;17.94;70.18
73594;BME280;64760;53.404;23.498;2023-09-30T03:30:19;99622.50;;;17.94;70.09
73594;BME280;64760;53.404;23.498;2023-09-30T03:32:46;99620.09;;;18.14;69.90
73594;BME280;64760;53.404;23.498;2023-09-30T03:35:12;99616.38;;;18.20;68.94
73594;BME280;64760;53.404;23.498;2023-09-30T03:37:43;99610.69;;;18.39;68.27
73594;BME280;64760;53.404;23.498;2023-09-30T03:40:11;99627.88;;;18.27;68.42
73594;BME280;64760;53.404;23.498;2023-09-30T03:42:40;99604.69;;;18.20;69.71
73594;BME280;64760;53.404;23.498;2023-09-30T03:45:09;99611.59;;;18.27;68.82
73594;BME280;64760;53.404;23.498;2023-09-30T03:47:40;99601.84;;;18.10;69.46
73594;BME280;64760;53.404;23.498;2023-09-30T03:50:07;99603.31;;;18.17;69.16
73594;BME280;64760;53.404;23.498;2023-09-30T03:52:42;99599.28;;;18.20;68.66
73594;BME280;64760;53.404;23.498;2023-09-30T03:55:11;99596.66;;;18.25;68.87
73594;BME280;64760;53.404;23.498;2023-09-30T03:57:37;99602.16;;;18.30;68.19
73594;BME280;64760;53.404;23.498;2023-09-30T04:00:04;99604.81;;;18.08;69.40
73594;BME280;64760;53.404;23.498;2023-09-30T04:02:42;99597.91;;;18.01;69.75
73594;BME280;64760;53.404;23.498;2023-09-30T04:05:09;99596.66;;;18.08;69.05
73594;BME280;64760;53.404;23.498;2023-09-30T04:07:37;99598.09;;;17.94;70.16
73594;BME280;64760;53.404;23.498;2023-09-30T04:10:04;99593.22;;;17.96;69.91
73594;BME280;64760;53.404;23.498;2023-09-30T04:12:30;99598.25;;;17.71;71.31
73594;BME280;64760;53.404;23.498;2023-09-30T04:14:59;99602.94;;;17.92;70.84
73594;BME280;64760;53.404;23.498;2023-09-30T04:17:25;99602.28;;;18.02;70.48
73594;BME280;64760;53.404;23.498;2023-09-30T04:19:53;99604.75;;;18.03;70.17
73594;BME280;64760;53.404;23.498;2023-09-30T04:22:19;99598.13;;;18.16;69.32
73594;BME280;64760;53.404;23.498;2023-09-30T04:24:47;99596.72;;;18.30;69.08
73594;BME280;64760;53.404;23.498;2023-09-30T04:27:16;99597.13;;;18.39;68.82
73594;BME280;64760;53.404;23.498;2023-09-30T04:29:43;99593.81;;;18.37;68.71
73594;BME280;64760;53.404;23.498;2023-09-30T04:32:10;99597.13;;;18.39;68.23
73594;BME280;64760;53.404;23.498;2023-09-30T04:34:36;99602.19;;;18.52;67.53
73594;BME280;64760;53.404;23.498;2023-09-30T04:37:02;99596.34;;;18.60;67.18
73594;BME280;64760;53.404;23.498;2023-09-30T04:39:29;99597.25;;;18.49;67.61
73594;BME280;64760;53.404;23.498;2023-09-30T04:41:55;99592.94;;;18.69;66.38
73594;BME280;64760;53.404;23.498;2023-09-30T04:44:22;99595.44;;;18.76;66.49
73594;BME280;64760;53.404;23.498;2023-09-30T04:46:48;99594.59;;;18.70;67.03
73594;BME280;64760;53.404;23.498;2023-09-30T04:49:15;99593.94;;;18.85;66.60
73594;BME280;64760;53.404;23.498;2023-09-30T04:51:41;99595.63;;;18.91;66.17
73594;BME280;64760;53.404;23.498;2023-09-30T04:54:07;99594.84;;;18.91;66.35
73594;BME280;64760;53.404;23.498;2023-09-30T04:56:35;99594.72;;;19.07;65.66
73594;BME280;64760;53.404;23.498;2023-09-30T04:59:02;99590.88;;;19.03;65.60
73594;BME280;64760;53.404;23.498;2023-09-30T05:01:30;99599.91;;;19.09;65.62
73594;BME280;64760;53.404;23.498;2023-09-30T05:03:56;99594.63;;;18.97;65.38
73594;BME280;64760;53.404;23.498;2023-09-30T05:06:23;99597.59;;;18.96;66.00
73594;BME280;64760;53.404;23.498;2023-09-30T05:08:50;99594.19;;;19.05;65.88
73594;BME280;64760;53.404;23.498;2023-09-30T05:11:16;99595.81;;;19.06;64.98
73594;BME280;64760;53.404;23.498;2023-09-30T05:13:42;99593.97;;;19.12;64.94
73594;BME280;64760;53.404;23.498;2023-09-30T05:16:08;99586.78;;;19.28;64.22
73594;BME280;64760;53.404;23.498;2023-09-30T05:18:35;99604.44;;;19.25;64.10
73594;BME280;64760;53.404;23.498;2023-09-30T05:21:02;99597.72;;;19.33;63.80
73594;BME280;64760;53.404;23.498;2023-09-30T05:23:29;99589.81;;;19.31;64.40
73594;BME280;64760;53.404;23.498;2023-09-30T05:25:55;99598.31;;;19.40;63.85
73594;BME280;64760;53.404;23.498;2023-09-30T05:28:22;99600.78;;;19.41;64.26
73594;BME280;64760;53.404;23.498;2023-09-30T05:30:48;99601.53;;;19.58;62.81
73594;BME280;64760;53.404;23.498;2023-09-30T05:33:16;99614.19;;;19.21;64.16
73594;BME280;64760;53.404;23.498;2023-09-30T05:35:42;99606.47;;;19.61;62.70
73594;BME280;64760;53.404;23.498;2023-09-30T05:38:16;99597.00;;;19.69;62.14
73594;BME280;64760;53.404;23.498;2023-09-30T05:40:45;99601.25;;;19.60;62.49
73594;BME280;64760;53.404;23.498;2023-09-30T05:43:11;99596.56;;;19.82;61.83
73594;BME280;64760;53.404;23.498;2023-09-30T05:45:39;99601.50;;;19.85;61.88
73594;BME280;64760;53.404;23.498;2023-09-30T05:48:15;99601.56;;;19.95;62.35
73594;BME280;64760;53.404;23.498;2023-09-30T05:50:42;99592.91;;;19.98;61.16
73594;BME280;64760;53.404;23.498;2023-09-30T05:53:09;99602.19;;;20.07;61.00
73594;BME280;64760;53.404;23.498;2023-09-30T05:55:37;99590.19;;;20.03;61.64
73594;BME280;64760;53.404;23.498;2023-09-30T05:58:04;99602.47;;;20.11;60.90
73594;BME280;64760;53.404;23.498;2023-09-30T06:00:31;99598.44;;;20.13;60.81
73594;BME280;64760;53.404;23.498;2023-09-30T06:03:02;99586.00;;;20.28;60.80
73594;BME280;64760;53.404;23.498;2023-09-30T06:05:30;99599.31;;;20.24;60.54
73594;BME280;64760;53.404;23.498;2023-09-30T06:08:00;99596.16;;;20.37;60.53
73594;BME280;64760;53.404;23.498;2023-09-30T06:10:28;99595.16;;;20.53;60.13
73594;BME280;64760;53.404;23.498;2023-09-30T06:12:56;99589.81;;;20.79;59.29
73594;BME280;64760;53.404;23.498;2023-09-30T06:15:24;99594.44;;;20.78;59.33
73594;BME280;64760;53.404;23.498;2023-09-30T06:17:56;99596.06;;;20.69;58.79
73594;BME280;64760;53.404;23.498;2023-09-30T06:20:22;99598.72;;;20.59;59.10
73594;BME280;64760;53.404;23.498;2023-09-30T06:22:49;99597.50;;;20.92;57.96
73594;BME280;64760;53.404;23.498;2023-09-30T06:25:16;99578.72;;;21.00;57.82
73594;BME280;64760;53.404;23.498;2023-09-30T06:27:46;99589.59;;;20.95;57.75
73594;BME280;64760;53.404;23.498;2023-09-30T06:30:13;99593.63;;;20.83;57.95
73594;BME280;64760;53.404;23.498;2023-09-30T06:32:42;99592.69;;;21.14;57.29
73594;BME280;64760;53.404;23.498;2023-09-30T06:35:09;99589.47;;;21.42;56.55
73594;BME280;64760;53.404;23.498;2023-09-30T06:37:40;99588.91;;;21.35;57.28
73594;BME280;64760;53.404;23.498;2023-09-30T06:40:07;99592.47;;;21.36;57.09
73594;BME280;64760;53.404;23.498;2023-09-30T06:42:36;99587.56;;;21.58;56.37
73594;BME280;64760;53.404;23.498;2023-09-30T06:45:05;99593.03;;;21.48;56.31
73594;BME280;64760;53.404;23.498;2023-09-30T06:47:36;99584.31;;;21.56;56.34
73594;BME280;64760;53.404;23.498;2023-09-30T06:50:11;99593.06;;;21.98;55.20
73594;BME280;64760;53.404;23.498;2023-09-30T06:52:43;99593.06;;;22.04;54.46
73594;BME280;64760;53.404;23.498;2023-09-30T06:55:11;99588.16;;;21.95;54.88
73594;BME280;64760;53.404;23.498;2023-09-30T06:57:40;99598.75;;;22.27;53.77
73594;BME280;64760;53.404;23.498;2023-09-30T07:00:11;99600.44;;;22.13;54.04
73594;BME280;64760;53.404;23.498;2023-09-30T07:02:39;99608.31;;;22.15;53.38
73594;BME280;64760;53.404;23.498;2023-09-30T07:05:09;99605.31;;;22.06;54.19
73594;BME280;64760;53.404;23.498;2023-09-30T07:07:36;99610.50;;;21.87;54.25
73594;BME280;64760;53.404;23.498;2023-09-30T07:10:03;99598.22;;;21.75;54.90
73594;BME280;64760;53.404;23.498;2023-09-30T07:12:33;99603.97;;;21.98;54.06
73594;BME280;64760;53.404;23.498;2023-09-30T07:15:02;99599.06;;;21.95;54.20
73594;BME280;64760;53.404;23.498;2023-09-30T07:17:32;99603.97;;;21.68;54.92
73594;BME280;64760;53.404;23.498;2023-09-30T07:19:58;99600.13;;;21.64;55.32
73594;BME280;64760;53.404;23.498;2023-09-30T07:22:25;99606.69;;;21.68;55.02
73594;BME280;64760;53.404;23.498;2023-09-30T07:24:52;99604.75;;;21.59;55.27
73594;BME280;64760;53.404;23.498;2023-09-30T07:27:23;99605.59;;;21.69;55.18
73594;BME280;64760;53.404;23.498;2023-09-30T07:29:50;99605.03;;;21.72;55.21
73594;BME280;64760;53.404;23.498;2023-09-30T07:32:16;99600.41;;;21.73;55.48
73594;BME280;64760;53.404;23.498;2023-09-30T07:34:43;99597.69;;;21.88;54.64
73594;BME280;64760;53.404;23.498;2023-09-30T07:37:10;99596.06;;;21.97;55.18
73594;BME280;64760;53.404;23.498;2023-09-30T07:39:36;99601.81;;;22.00;54.89
73594;BME280;64760;53.404;23.498;2023-09-30T07:42:03;99603.97;;;22.09;54.24
73594;BME280;64760;53.404;23.498;2023-09-30T07:44:31;99608.63;;;22.03;54.22
73594;BME280;64760;53.404;23.498;2023-09-30T07:46:58;99616.28;;;21.96;54.94
73594;BME280;64760;53.404;23.498;2023-09-30T07:49:27;99621.47;;;21.97;54.96
73594;BME280;64760;53.404;23.498;2023-09-30T07:51:54;99618.69;;;21.87;55.04
73594;BME280;64760;53.404;23.498;2023-09-30T07:54:20;99626.31;;;21.90;55.47
73594;BME280;64760;53.404;23.498;2023-09-30T07:56:47;99633.41;;;21.66;56.06
73594;BME280;64760;53.404;23.498;2023-09-30T07:59:14;99625.78;;;21.68;55.89
73594;BME280;64760;53.404;23.498;2023-09-30T08:01:42;99626.84;;;21.52;56.19
73594;BME280;64760;53.404;23.498;2023-09-30T08:04:08;99626.88;;;21.57;56.83
73594;BME280;64760;53.404;23.498;2023-09-30T08:06:35;99616.25;;;21.66;56.31
73594;BME280;64760;53.404;23.498;2023-09-30T08:09:01;99622.78;;;21.60;56.21
73594;BME280;64760;53.404;23.498;2023-09-30T08:11:29;99618.41;;;21.69;56.30
73594;BME280;64760;53.404;23.498;2023-09-30T08:13:58;99624.69;;;21.69;56.22
73594;BME280;64760;53.404;23.498;2023-09-30T08:16:25;99633.41;;;21.61;56.50
73594;BME280;64760;53.404;23.498;2023-09-30T08:18:51;99631.78;;;21.65;56.12
73594;BME280;64760;53.404;23.498;2023-09-30T08:21:17;99635.06;;;21.77;56.49
73594;BME280;64760;53.404;23.498;2023-09-30T08:23:46;99630.16;;;21.84;55.92
73594;BME280;64760;53.404;23.498;2023-09-30T08:26:15;99628.00;;;21.96;56.21
73594;BME280;64760;53.404;23.498;2023-09-30T08:28:44;99632.06;;;21.89;56.23
73594;BME280;64760;53.404;23.498;2023-09-30T08:31:11;99632.91;;;22.10;55.75
73594;BME280;64760;53.404;23.498;2023-09-30T08:33:37;99637.03;;;21.97;55.96
73594;BME280;64760;53.404;23.498;2023-09-30T08:36:07;99645.72;;;21.84;56.93
73594;BME280;64760;53.404;23.498;2023-09-30T08:38:38;99653.66;;;21.95;56.61
73594;BME280;64760;53.404;23.498;2023-09-30T08:41:07;99654.44;;;21.86;57.48
73594;BME280;64760;53.404;23.498;2023-09-30T08:43:37;99650.34;;;21.68;57.79
73594;BME280;64760;53.404;23.498;2023-09-30T08:46:05;99646.00;;;21.77;57.93
73594;BME280;64760;53.404;23.498;2023-09-30T08:48:33;99634.78;;;21.64;58.42
73594;BME280;64760;53.404;23.498;2023-09-30T08:51:00;99647.38;;;21.95;57.57
73594;BME280;64760;53.404;23.498;2023-09-30T08:53:27;99636.72;;;21.98;57.99
73594;BME280;64760;53.404;23.498;2023-09-30T08:55:57;99641.66;;;21.91;57.89
73594;BME280;64760;53.404;23.498;2023-09-30T08:58:28;99645.97;;;21.72;58.15
73594;BME280;64760;53.404;23.498;2023-09-30T09:00:55;99644.34;;;21.86;58.32
73594;BME280;64760;53.404;23.498;2023-09-30T09:03:22;99652.53;;;21.81;58.12
73594;BME280;64760;53.404;23.498;2023-09-30T09:05:55;99649.78;;;21.61;59.05
73594;BME280;64760;53.404;23.498;2023-09-30T09:08:27;99652.25;;;21.58;59.20
73594;BME280;64760;53.404;23.498;2023-09-30T09:11:01;99642.69;;;21.65;59.03
73594;BME280;64760;53.404;23.498;2023-09-30T09:13:51;99635.88;;;21.68;59.49
73594;BME280;64760;53.404;23.498;2023-09-30T09:16:23;99636.66;;;21.58;59.80
73594;BME280;64760;53.404;23.498;2023-09-30T09:18:50;99632.31;;;21.62;59.87
73594;BME280;64760;53.404;23.498;2023-09-30T09:21:19;99646.50;;;21.74;59.53
73594;BME280;64760;53.404;23.498;2023-09-30T09:23:48;99647.28;;;21.44;60.60
73594;BME280;64760;53.404;23.498;2023-09-30T09:26:25;99655.19;;;21.41;60.51
73594;BME280;64760;53.404;23.498;2023-09-30T09:29:10;99656.28;;;21.40;61.43
73594;BME280;64760;53.404;23.498;2023-09-30T09:31:37;99646.50;;;21.49;62.08
73594;BME280;64760;53.404;23.498;2023-09-30T09:34:14;99654.34;;;21.30;63.68
73594;BME280;64760;53.404;23.498;2023-09-30T09:36:42;99654.53;;;21.08;65.01
73594;BME280;64760;53.404;23.498;2023-09-30T09:39:09;99651.78;;;21.08;65.29
73594;BME280;64760;53.404;23.498;2023-09-30T09:41:52;99653.53;;;21.25;65.40
73594;BME280;64760;53.404;23.498;2023-09-30T09:44:19;99653.31;;;20.84;66.89
73594;BME280;64760;53.404;23.498;2023-09-30T09:46:48;99665.88;;;20.85;67.58
73594;BME280;64760;53.404;23.498;2023-09-30T09:49:20;99672.75;;;20.98;66.76
73594;BME280;64760;53.404;23.498;2023-09-30T09:51:47;99666.97;;;20.94;67.83
73594;BME280;64760;53.404;23.498;2023-09-30T09:54:14;99669.78;;;21.04;67.58
73594;BME280;64760;53.404;23.498;2023-09-30T09:56:42;99668.56;;;20.80;68.65
73594;BME280;64760;53.404;23.498;2023-09-30T09:59:11;99678.31;;;20.66;68.40
73594;BME280;64760;53.404;23.498;2023-09-30T10:01:40;99672.16;;;20.91;67.56
73594;BME280;64760;53.404;23.498;2023-09-30T10:04:07;99673.56;;;21.03;67.00
73594;BME280;64760;53.404;23.498;2023-09-30T10:06:34;99671.00;;;21.39;65.90
73594;BME280;64760;53.404;23.498;2023-09-30T10:09:09;99675.41;;;21.55;65.36
73594;BME280;64760;53.404;23.498;2023-09-30T10:11:38;99678.69;;;21.67;64.57
73594;BME280;64760;53.404;23.498;2023-09-30T10:14:04;99670.81;;;21.76;63.75
73594;BME280;64760;53.404;23.498;2023-09-30T10:24:49;99662.34;;;21.67;63.82
73594;BME280;64760;53.404;23.498;2023-09-30T10:29:59;99669.44;;;21.73;63.97
73594;BME280;64760;53.404;23.498;2023-09-30T10:40:51;99657.16;;;21.71;62.96
73594;BME280;64760;53.404;23.498;2023-09-30T10:43:34;99672.50;;;22.07;61.67
73594;BME280;64760;53.404;23.498;2023-09-30T10:46:02;99675.16;;;21.82;62.72
73594;BME280;64760;53.404;23.498;2023-09-30T10:48:32;99673.84;;;21.89;62.86
73594;BME280;64760;53.404;23.498;2023-09-30T10:50:59;99668.59;;;21.63;63.23
73594;BME280;64760;53.404;23.498;2023-09-30T10:53:31;99679.84;;;22.01;62.42
73594;BME280;64760;53.404;23.498;2023-09-30T10:55:59;99673.81;;;21.79;62.87
73594;BME280;64760;53.404;23.498;2023-09-30T10:58:44;99680.59;;;21.57;63.81
73594;BME280;64760;53.404;23.498;2023-09-30T11:01:19;99678.72;;;21.72;63.43
73594;BME280;64760;53.404;23.498;2023-09-30T11:03:47;99679.53;;;21.58;64.09
73594;BME280;64760;53.404;23.498;2023-09-30T11:06:14;99682.22;;;21.52;64.31
73594;BME280;64760;53.404;23.498;2023-09-30T11:11:16;99688.25;;;21.60;63.75
73594;BME280;64760;53.404;23.498;2023-09-30T11:13:43;99682.50;;;21.56;64.34
73594;BME280;64760;53.404;23.498;2023-09-30T11:16:09;99687.97;;;21.56;64.57
73594;BME280;64760;53.404;23.498;2023-09-30T11:18:35;99689.03;;;21.45;64.54
73594;BME280;64760;53.404;23.498;2023-09-30T11:21:11;99689.34;;;21.64;63.95
73594;BME280;64760;53.404;23.498;2023-09-30T11:23:40;99683.00;;;21.33;65.21
73594;BME280;64760;53.404;23.498;2023-09-30T11:26:07;99688.78;;;21.57;64.44
73594;BME280;64760;53.404;23.498;2023-09-30T11:28:41;99689.84;;;21.45;65.07
73594;BME280;64760;53.404;23.498;2023-09-30T11:31:12;99694.44;;;21.30;66.02
73594;BME280;64760;53.404;23.498;2023-09-30T11:33:53;99692.25;;;21.32;66.78
73594;BME280;64760;53.404;23.498;2023-09-30T11:36:22;99693.56;;;21.19;69.91
73594;BME280;64760;53.404;23.498;2023-09-30T11:38:50;99701.50;;;20.74;74.31
73594;BME280;64760;53.404;23.498;2023-09-30T11:41:18;99700.56;;;20.53;77.59
73594;BME280;64760;53.404;23.498;2023-09-30T11:44:04;99692.56;;;20.41;80.37
73594;BME280;64760;53.404;23.498;2023-09-30T11:46:31;99699.63;;;19.79;83.54
73594;BME280;64760;53.404;23.498;2023-09-30T11:49:02;99698.91;;;19.61;86.88
73594;BME280;64760;53.404;23.498;2023-09-30T11:51:29;99695.31;;;19.83;87.49
73594;BME280;64760;53.404;23.498;2023-09-30T11:53:56;99693.88;;;19.48;88.90
73594;BME280;64760;53.404;23.498;2023-09-30T11:56:23;99698.63;;;19.58;90.26
73594;BME280;64760;53.404;23.498;2023-09-30T11:58:56;99700.38;;;19.26;91.86
73594;BME280;64760;53.404;23.498;2023-09-30T12:01:23;99706.59;;;19.21;92.53
73594;BME280;64760;53.404;23.498;2023-09-30T12:03:51;99703.78;;;19.38;93.90
73594;BME280;64760;53.404;23.498;2023-09-30T12:06:17;99700.66;;;19.46;94.01
73594;BME280;64760;53.404;23.498;2023-09-30T12:08:44;99703.50;;;19.34;95.14
73594;BME280;64760;53.404;23.498;2023-09-30T12:11:11;99706.34;;;19.44;95.43
73594;BME280;64760;53.404;23.498;2023-09-30T12:13:42;99716.81;;;19.36;95.46
73594;BME280;64760;53.404;23.498;2023-09-30T12:16:11;99713.16;;;19.47;94.90
73594;BME280;64760;53.404;23.498;2023-09-30T12:18:39;99718.66;;;19.08;97.88
73594;BME280;64760;53.404;23.498;2023-09-30T12:21:10;99715.03;;;19.24;97.82
73594;BME280;64760;53.404;23.498;2023-09-30T12:23:37;99719.53;;;19.36;96.63
73594;BME280;64760;53.404;23.498;2023-09-30T12:26:03;99726.66;;;19.20;97.93
73594;BME280;64760;53.404;23.498;2023-09-30T12:28:32;99734.88;;;19.03;99.51
73594;BME280;64760;53.404;23.498;2023-09-30T12:31:00;99734.44;;;19.11;99.41
73594;BME280;64760;53.404;23.498;2023-09-30T12:33:31;99733.28;;;19.07;99.89
73594;BME280;64760;53.404;23.498;2023-09-30T12:35:58;99734.75;;;18.55;100.00
73594;BME280;64760;53.404;23.498;2023-09-30T12:38:25;99754.38;;;18.45;100.00
73594;BME280;64760;53.404;23.498;2023-09-30T12:40:54;99751.22;;;18.37;100.00
73594;BME280;64760;53.404;23.498;2023-09-30T12:43:23;99748.44;;;18.31;100.00
73594;BME280;64760;53.404;23.498;2023-09-30T12:45:50;99748.59;;;18.25;100.00
73594;BME280;64760;53.404;23.498;2023-09-30T12:48:20;99758.81;;;18.18;100.00
73594;BME280;64760;53.404;23.498;2023-09-30T12:50:46;99763.81;;;18.26;100.00
73594;BME280;64760;53.404;23.498;2023-09-30T12:53:13;99769.66;;;18.18;100.00
73594;BME280;64760;53.404;23.498;2023-09-30T12:55:40;99770.13;;;17.98;100.00
73594;BME280;64760;53.404;23.498;2023-09-30T12:58:07;99772.50;;;17.55;100.00
73594;BME280;64760;53.404;23.498;2023-09-30T13:00:34;99769.59;;;17.84;100.00
73594;BME280;64760;53.404;23.498;2023-09-30T13:03:02;99770.75;;;17.60;100.00
73594;BME280;64760;53.404;23.498;2023-09-30T13:05:28;99774.88;;;17.51;100.00
73594;BME280;64760;53.404;23.498;2023-09-30T13:07:57;99777.59;;;17.63;100.00
73594;BME280;64760;53.404;23.498;2023-09-30T13:10:24;99776.41;;;17.59;100.00
73594;BME280;64760;53.404;23.498;2023-09-30T13:12:51;99771.56;;;17.61;100.00
73594;BME280;64760;53.404;23.498;2023-09-30T13:15:19;99779.56;;;17.67;100.00
73594;BME280;64760;53.404;23.498;2023-09-30T13:17:47;99782.78;;;17.41;100.00